Tropical Cyclones
[Index]
Main Index Home Page Stock Weather Photos Extreme Storms Discussion Storm News and Storm Chasing Reports Tropical Cyclones / Hurricanes / Typhoons Weather Data and Links Wild Fires / Bushfires Weather Observation Techniques Weather Picture Catalogue Tornado Pictures and Reports Stock Video Footage and DVDs for sale
Season 1984-1985 Tropical Cyclone HINA Track Map
Season 1984-1985 Summaries: [BoM-AU] [JTWC-AU] [JTWC-SIO] [JTWC-SPAC] [JTWC-SH]
<<- Previous TC | JTWC 1984-1985 Season | Next TC ->>

click for intensity scale information  Lat/long Grid: Show Hide

 Date Labels: Show Hide

Joint Typhoon Warning Centre Cyclone Data

Name: HINA

12 Mar 1985 00:00 UTC to 19 Mar 1985 00:00 UTC

    date/time    lat    long     hPa   cat  kts
1985-03-12 00   14.6   170.4                  25          
1985-03-12 06   14.9   169.1                  25          
1985-03-12 12   14.8   167.9                  30          
1985-03-12 18   14.4   166.9                  35          
1985-03-13 00   14.0   166.1            1     40          
1985-03-13 06   13.6   165.5            1     45          
1985-03-13 12   13.2   165.0            1     50          
1985-03-13 18   12.8   164.6            2     55          
1985-03-14 00   12.4   164.6            2     60          
1985-03-14 06   12.0   165.2            2     70          
1985-03-14 12   11.7   165.9            3     80          
1985-03-14 18   11.7   166.6            3     90          
1985-03-15 00   12.0   167.3            4    100          
1985-03-15 06   12.3   168.2            4    110          
1985-03-15 12   12.7   169.4            4    120          
1985-03-15 18   13.4   170.8            5    125          
1985-03-16 00   14.2   172.3            5    130          
1985-03-16 06   15.2   173.7            5    135          
1985-03-16 12   16.3   175.0            5    135          
1985-03-16 18   17.5   176.2            5    125          
1985-03-17 00   19.2   177.3            4    110          
1985-03-17 06   21.6   178.3            4    100          
1985-03-17 12   24.1   179.3            3     90          
1985-03-17 18   26.7   179.7W           3     80          
1985-03-18 00   29.1   178.7W           2     70          
1985-03-18 06   30.9   177.3W           2     60          
1985-03-18 12   32.4   175.5W           1     50          
1985-03-18 18   34.0   173.6W           1     40          
1985-03-19 00   35.6   171.6W                 35          
Winds are 1-min average.

Tropical cyclone tracks developed by Michael Bath using data from the Joint Typhoon Warning Centre Best Tracks and Google Maps.


[Australian Severe Weather index] [Copyright Notice] [Email Contacts] [Search This Site] [Privacy Policy]
Document: tropical_cyclone_hina.htm Updated: 18 September 2016